sensor_id;sensor_type;location;lat;lon;timestamp;P1;durP1;ratioP1;P2;durP2;ratioP2
74177;SDS011;62540;48.456;-4.456;2023-06-10T00:00:11;11.25;;;11.00;;
74177;SDS011;62540;48.456;-4.456;2023-06-10T00:02:39;16.50;;;15.00;;
74177;SDS011;62540;48.456;-4.456;2023-06-10T00:05:05;13.75;;;13.50;;
74177;SDS011;62540;48.456;-4.456;2023-06-10T00:07:30;13.25;;;11.50;;
74177;SDS011;62540;48.456;-4.456;2023-06-10T00:09:56;15.75;;;14.25;;
74177;SDS011;62540;48.456;-4.456;2023-06-10T00:12:22;12.00;;;10.75;;
74177;SDS011;62540;48.456;-4.456;2023-06-10T00:14:47;16.25;;;15.50;;
74177;SDS011;62540;48.456;-4.456;2023-06-10T00:17:15;16.50;;;15.00;;
74177;SDS011;62540;48.456;-4.456;2023-06-10T00:19:40;18.75;;;14.50;;
74177;SDS011;62540;48.456;-4.456;2023-06-10T00:22:06;17.50;;;15.00;;
74177;SDS011;62540;48.456;-4.456;2023-06-10T00:24:31;19.50;;;15.75;;
74177;SDS011;62540;48.456;-4.456;2023-06-10T00:26:56;18.75;;;13.75;;
74177;SDS011;62540;48.456;-4.456;2023-06-10T00:29:22;14.75;;;14.25;;
74177;SDS011;62540;48.456;-4.456;2023-06-10T00:31:47;14.00;;;12.75;;
74177;SDS011;62540;48.456;-4.456;2023-06-10T00:34:13;17.75;;;15.25;;
74177;SDS011;62540;48.456;-4.456;2023-06-10T00:36:38;16.00;;;14.75;;
74177;SDS011;62540;48.456;-4.456;2023-06-10T00:39:03;15.75;;;14.25;;
74177;SDS011;62540;48.456;-4.456;2023-06-10T00:41:29;15.00;;;12.50;;
74177;SDS011;62540;48.456;-4.456;2023-06-10T00:43:55;18.00;;;15.00;;
74177;SDS011;62540;48.456;-4.456;2023-06-10T00:46:21;14.00;;;13.00;;
74177;SDS011;62540;48.456;-4.456;2023-06-10T00:48:49;13.25;;;13.25;;
74177;SDS011;62540;48.456;-4.456;2023-06-10T00:51:15;15.25;;;13.00;;
74177;SDS011;62540;48.456;-4.456;2023-06-10T00:53:41;11.75;;;11.50;;
74177;SDS011;62540;48.456;-4.456;2023-06-10T00:56:07;14.25;;;13.00;;
74177;SDS011;62540;48.456;-4.456;2023-06-10T00:58:33;15.75;;;13.50;;
74177;SDS011;62540;48.456;-4.456;2023-06-10T01:00:59;11.75;;;11.25;;
74177;SDS011;62540;48.456;-4.456;2023-06-10T01:03:24;18.50;;;13.25;;
74177;SDS011;62540;48.456;-4.456;2023-06-10T01:11:21;15.25;;;14.00;;
74177;SDS011;62540;48.456;-4.456;2023-06-10T01:13:54;13.75;;;12.00;;
74177;SDS011;62540;48.456;-4.456;2023-06-10T01:16:21;12.75;;;12.00;;
74177;SDS011;62540;48.456;-4.456;2023-06-10T01:18:47;15.75;;;13.00;;
74177;SDS011;62540;48.456;-4.456;2023-06-10T01:21:19;12.25;;;11.75;;
74177;SDS011;62540;48.456;-4.456;2023-06-10T01:23:46;14.75;;;13.75;;
74177;SDS011;62540;48.456;-4.456;2023-06-10T01:26:12;15.75;;;12.50;;
74177;SDS011;62540;48.456;-4.456;2023-06-10T01:31:31;14.75;;;14.00;;
74177;SDS011;62540;48.456;-4.456;2023-06-10T01:34:09;14.50;;;13.75;;
74177;SDS011;62540;48.456;-4.456;2023-06-10T01:36:36;22.25;;;15.75;;
74177;SDS011;62540;48.456;-4.456;2023-06-10T01:39:04;17.25;;;14.25;;
74177;SDS011;62540;48.456;-4.456;2023-06-10T01:41:30;23.25;;;16.75;;
74177;SDS011;62540;48.456;-4.456;2023-06-10T01:43:56;16.25;;;15.50;;
74177;SDS011;62540;48.456;-4.456;2023-06-10T01:46:22;20.75;;;18.50;;
74177;SDS011;62540;48.456;-4.456;2023-06-10T01:48:47;19.75;;;16.25;;
74177;SDS011;62540;48.456;-4.456;2023-06-10T01:51:13;18.00;;;15.50;;
74177;SDS011;62540;48.456;-4.456;2023-06-10T01:53:39;13.50;;;11.50;;
74177;SDS011;62540;48.456;-4.456;2023-06-10T01:56:04;18.50;;;16.25;;
74177;SDS011;62540;48.456;-4.456;2023-06-10T01:58:30;16.25;;;13.75;;
74177;SDS011;62540;48.456;-4.456;2023-06-10T02:00:55;13.50;;;12.25;;
74177;SDS011;62540;48.456;-4.456;2023-06-10T02:03:21;10.75;;;10.00;;
74177;SDS011;62540;48.456;-4.456;2023-06-10T02:05:46;11.75;;;10.25;;
74177;SDS011;62540;48.456;-4.456;2023-06-10T02:08:11;11.00;;;9.75;;
74177;SDS011;62540;48.456;-4.456;2023-06-10T02:10:37;10.00;;;9.25;;
74177;SDS011;62540;48.456;-4.456;2023-06-10T02:13:02;10.00;;;8.75;;
74177;SDS011;62540;48.456;-4.456;2023-06-10T02:15:27;11.50;;;11.00;;
74177;SDS011;62540;48.456;-4.456;2023-06-10T02:17:53;12.50;;;10.50;;
74177;SDS011;62540;48.456;-4.456;2023-06-10T02:20:19;11.75;;;8.75;;
74177;SDS011;62540;48.456;-4.456;2023-06-10T02:22:45;11.00;;;9.75;;
74177;SDS011;62540;48.456;-4.456;2023-06-10T02:25:11;10.75;;;10.75;;
74177;SDS011;62540;48.456;-4.456;2023-06-10T02:27:36;10.00;;;8.50;;
74177;SDS011;62540;48.456;-4.456;2023-06-10T02:30:02;11.75;;;10.25;;
74177;SDS011;62540;48.456;-4.456;2023-06-10T02:32:27;10.00;;;8.75;;
74177;SDS011;62540;48.456;-4.456;2023-06-10T02:34:53;10.25;;;8.00;;
74177;SDS011;62540;48.456;-4.456;2023-06-10T02:37:19;12.00;;;10.00;;
74177;SDS011;62540;48.456;-4.456;2023-06-10T02:39:45;10.00;;;9.25;;
74177;SDS011;62540;48.456;-4.456;2023-06-10T02:42:10;7.25;;;6.50;;
74177;SDS011;62540;48.456;-4.456;2023-06-10T02:44:36;12.50;;;10.25;;
74177;SDS011;62540;48.456;-4.456;2023-06-10T02:47:02;9.50;;;8.75;;
74177;SDS011;62540;48.456;-4.456;2023-06-10T02:49:28;9.50;;;7.50;;
74177;SDS011;62540;48.456;-4.456;2023-06-10T02:51:53;10.00;;;10.00;;
74177;SDS011;62540;48.456;-4.456;2023-06-10T02:54:19;8.00;;;8.00;;
74177;SDS011;62540;48.456;-4.456;2023-06-10T02:56:45;7.75;;;7.75;;
74177;SDS011;62540;48.456;-4.456;2023-06-10T02:59:12;11.75;;;11.75;;
74177;SDS011;62540;48.456;-4.456;2023-06-10T03:01:38;10.25;;;9.50;;
74177;SDS011;62540;48.456;-4.456;2023-06-10T03:04:04;12.50;;;11.25;;
74177;SDS011;62540;48.456;-4.456;2023-06-10T03:06:30;9.75;;;9.75;;
74177;SDS011;62540;48.456;-4.456;2023-06-10T03:08:55;11.25;;;11.25;;
74177;SDS011;62540;48.456;-4.456;2023-06-10T03:11:21;10.25;;;10.25;;
74177;SDS011;62540;48.456;-4.456;2023-06-10T03:13:46;11.50;;;8.00;;
74177;SDS011;62540;48.456;-4.456;2023-06-10T03:16:11;12.00;;;12.00;;
74177;SDS011;62540;48.456;-4.456;2023-06-10T03:18:37;10.75;;;10.00;;
74177;SDS011;62540;48.456;-4.456;2023-06-10T03:21:03;11.00;;;9.75;;
74177;SDS011;62540;48.456;-4.456;2023-06-10T03:23:28;9.50;;;9.50;;
74177;SDS011;62540;48.456;-4.456;2023-06-10T03:25:54;9.50;;;8.75;;
74177;SDS011;62540;48.456;-4.456;2023-06-10T03:28:20;10.00;;;8.50;;
74177;SDS011;62540;48.456;-4.456;2023-06-10T03:30:46;10.25;;;8.50;;
74177;SDS011;62540;48.456;-4.456;2023-06-10T03:33:12;9.75;;;9.00;;
74177;SDS011;62540;48.456;-4.456;2023-06-10T03:35:38;10.00;;;10.00;;
74177;SDS011;62540;48.456;-4.456;2023-06-10T03:38:04;13.50;;;11.50;;
74177;SDS011;62540;48.456;-4.456;2023-06-10T03:40:30;9.75;;;8.75;;
74177;SDS011;62540;48.456;-4.456;2023-06-10T03:42:56;9.75;;;9.00;;
74177;SDS011;62540;48.456;-4.456;2023-06-10T03:45:22;11.00;;;9.00;;
74177;SDS011;62540;48.456;-4.456;2023-06-10T03:47:48;8.00;;;5.00;;
74177;SDS011;62540;48.456;-4.456;2023-06-10T03:50:13;15.25;;;10.25;;
74177;SDS011;62540;48.456;-4.456;2023-06-10T03:52:38;9.00;;;8.50;;
74177;SDS011;62540;48.456;-4.456;2023-06-10T03:55:05;11.50;;;9.50;;
74177;SDS011;62540;48.456;-4.456;2023-06-10T03:57:31;9.00;;;7.50;;
74177;SDS011;62540;48.456;-4.456;2023-06-10T03:59:56;7.25;;;7.00;;
74177;SDS011;62540;48.456;-4.456;2023-06-10T04:02:22;7.25;;;7.25;;
74177;SDS011;62540;48.456;-4.456;2023-06-10T04:04:47;5.75;;;5.75;;
74177;SDS011;62540;48.456;-4.456;2023-06-10T04:07:13;7.00;;;7.00;;
74177;SDS011;62540;48.456;-4.456;2023-06-10T04:09:39;10.75;;;8.75;;
74177;SDS011;62540;48.456;-4.456;2023-06-10T04:12:04;7.75;;;7.00;;
74177;SDS011;62540;48.456;-4.456;2023-06-10T04:14:33;10.00;;;7.00;;
74177;SDS011;62540;48.456;-4.456;2023-06-10T04:16:59;9.25;;;7.00;;
74177;SDS011;62540;48.456;-4.456;2023-06-10T04:19:24;7.50;;;7.00;;
74177;SDS011;62540;48.456;-4.456;2023-06-10T04:21:50;8.25;;;7.50;;
74177;SDS011;62540;48.456;-4.456;2023-06-10T04:24:16;8.00;;;6.25;;
74177;SDS011;62540;48.456;-4.456;2023-06-10T04:26:41;8.75;;;8.00;;
74177;SDS011;62540;48.456;-4.456;2023-06-10T04:29:07;7.75;;;7.00;;
74177;SDS011;62540;48.456;-4.456;2023-06-10T04:31:32;10.25;;;6.25;;
74177;SDS011;62540;48.456;-4.456;2023-06-10T04:33:58;7.00;;;7.00;;
74177;SDS011;62540;48.456;-4.456;2023-06-10T04:36:23;4.00;;;4.00;;
74177;SDS011;62540;48.456;-4.456;2023-06-10T04:38:48;6.00;;;6.00;;
74177;SDS011;62540;48.456;-4.456;2023-06-10T04:41:14;8.25;;;6.25;;
74177;SDS011;62540;48.456;-4.456;2023-06-10T04:43:39;6.75;;;6.00;;
74177;SDS011;62540;48.456;-4.456;2023-06-10T04:46:05;9.25;;;7.00;;
74177;SDS011;62540;48.456;-4.456;2023-06-10T04:48:30;7.25;;;6.50;;
74177;SDS011;62540;48.456;-4.456;2023-06-10T04:50:56;7.00;;;6.00;;
74177;SDS011;62540;48.456;-4.456;2023-06-10T04:53:22;7.25;;;6.25;;
74177;SDS011;62540;48.456;-4.456;2023-06-10T04:55:47;6.25;;;5.50;;
74177;SDS011;62540;48.456;-4.456;2023-06-10T04:58:13;8.00;;;7.00;;
74177;SDS011;62540;48.456;-4.456;2023-06-10T05:00:39;6.50;;;5.50;;
74177;SDS011;62540;48.456;-4.456;2023-06-10T05:03:05;7.00;;;7.00;;
74177;SDS011;62540;48.456;-4.456;2023-06-10T05:05:30;7.25;;;7.00;;
74177;SDS011;62540;48.456;-4.456;2023-06-10T05:07:55;9.75;;;7.00;;
74177;SDS011;62540;48.456;-4.456;2023-06-10T05:10:21;8.75;;;6.75;;
74177;SDS011;62540;48.456;-4.456;2023-06-10T05:12:46;5.75;;;5.75;;
74177;SDS011;62540;48.456;-4.456;2023-06-10T05:15:11;7.00;;;6.50;;
74177;SDS011;62540;48.456;-4.456;2023-06-10T05:17:37;8.25;;;6.75;;
74177;SDS011;62540;48.456;-4.456;2023-06-10T05:20:03;11.50;;;8.75;;
74177;SDS011;62540;48.456;-4.456;2023-06-10T05:22:29;8.25;;;7.50;;
74177;SDS011;62540;48.456;-4.456;2023-06-10T05:24:54;7.50;;;6.00;;
74177;SDS011;62540;48.456;-4.456;2023-06-10T05:27:20;8.75;;;7.00;;
74177;SDS011;62540;48.456;-4.456;2023-06-10T05:29:46;8.00;;;7.75;;
74177;SDS011;62540;48.456;-4.456;2023-06-10T05:32:11;7.50;;;7.50;;
74177;SDS011;62540;48.456;-4.456;2023-06-10T05:34:37;6.50;;;6.00;;
74177;SDS011;62540;48.456;-4.456;2023-06-10T05:37:02;5.75;;;5.75;;
74177;SDS011;62540;48.456;-4.456;2023-06-10T05:39:28;5.75;;;5.25;;
74177;SDS011;62540;48.456;-4.456;2023-06-10T05:41:53;5.25;;;5.00;;
74177;SDS011;62540;48.456;-4.456;2023-06-10T05:44:19;6.25;;;6.00;;
74177;SDS011;62540;48.456;-4.456;2023-06-10T05:46:44;5.00;;;4.00;;
74177;SDS011;62540;48.456;-4.456;2023-06-10T05:49:09;7.00;;;6.00;;
74177;SDS011;62540;48.456;-4.456;2023-06-10T05:51:35;7.00;;;5.50;;
74177;SDS011;62540;48.456;-4.456;2023-06-10T05:54:02;7.00;;;4.75;;
74177;SDS011;62540;48.456;-4.456;2023-06-10T05:56:27;4.25;;;4.25;;
74177;SDS011;62540;48.456;-4.456;2023-06-10T05:58:52;6.25;;;5.25;;
74177;SDS011;62540;48.456;-4.456;2023-06-10T06:01:18;3.75;;;3.25;;
74177;SDS011;62540;48.456;-4.456;2023-06-10T06:03:43;3.00;;;2.00;;
74177;SDS011;62540;48.456;-4.456;2023-06-10T06:06:09;2.25;;;2.00;;
74177;SDS011;62540;48.456;-4.456;2023-06-10T06:08:34;2.00;;;2.00;;
74177;SDS011;62540;48.456;-4.456;2023-06-10T06:11:00;1.00;;;1.00;;
74177;SDS011;62540;48.456;-4.456;2023-06-10T06:13:25;3.50;;;1.75;;
74177;SDS011;62540;48.456;-4.456;2023-06-10T06:15:50;1.00;;;1.00;;
74177;SDS011;62540;48.456;-4.456;2023-06-10T06:18:16;1.00;;;1.00;;
74177;SDS011;62540;48.456;-4.456;2023-06-10T06:20:41;1.00;;;1.00;;
74177;SDS011;62540;48.456;-4.456;2023-06-10T06:23:06;2.00;;;2.00;;
74177;SDS011;62540;48.456;-4.456;2023-06-10T06:25:34;1.25;;;1.25;;
74177;SDS011;62540;48.456;-4.456;2023-06-10T06:28:01;2.00;;;1.25;;
74177;SDS011;62540;48.456;-4.456;2023-06-10T06:30:26;2.00;;;2.00;;
74177;SDS011;62540;48.456;-4.456;2023-06-10T06:32:52;2.00;;;1.50;;
74177;SDS011;62540;48.456;-4.456;2023-06-10T06:35:17;4.50;;;2.50;;
74177;SDS011;62540;48.456;-4.456;2023-06-10T06:37:43;3.00;;;2.50;;
74177;SDS011;62540;48.456;-4.456;2023-06-10T06:40:09;2.25;;;1.00;;
74177;SDS011;62540;48.456;-4.456;2023-06-10T06:42:34;1.00;;;1.00;;
74177;SDS011;62540;48.456;-4.456;2023-06-10T06:45:00;3.50;;;2.50;;
74177;SDS011;62540;48.456;-4.456;2023-06-10T06:47:25;2.00;;;1.25;;
74177;SDS011;62540;48.456;-4.456;2023-06-10T06:49:51;2.25;;;1.50;;
74177;SDS011;62540;48.456;-4.456;2023-06-10T06:52:17;2.25;;;1.25;;
74177;SDS011;62540;48.456;-4.456;2023-06-10T06:54:42;3.00;;;2.00;;
74177;SDS011;62540;48.456;-4.456;2023-06-10T06:57:08;2.00;;;2.00;;
74177;SDS011;62540;48.456;-4.456;2023-06-10T06:59:33;2.00;;;2.00;;
74177;SDS011;62540;48.456;-4.456;2023-06-10T07:01:58;2.00;;;2.00;;
74177;SDS011;62540;48.456;-4.456;2023-06-10T07:04:24;2.00;;;2.00;;
74177;SDS011;62540;48.456;-4.456;2023-06-10T07:06:49;2.25;;;0.75;;
74177;SDS011;62540;48.456;-4.456;2023-06-10T07:09:15;1.00;;;0.25;;
74177;SDS011;62540;48.456;-4.456;2023-06-10T07:11:40;1.75;;;1.75;;
74177;SDS011;62540;48.456;-4.456;2023-06-10T07:14:06;1.00;;;1.00;;
74177;SDS011;62540;48.456;-4.456;2023-06-10T07:16:32;2.50;;;2.00;;
74177;SDS011;62540;48.456;-4.456;2023-06-10T07:18:57;2.00;;;2.00;;
74177;SDS011;62540;48.456;-4.456;2023-06-10T07:21:23;1.00;;;1.00;;
74177;SDS011;62540;48.456;-4.456;2023-06-10T07:23:48;2.00;;;2.00;;
74177;SDS011;62540;48.456;-4.456;2023-06-10T07:26:17;1.75;;;1.75;;
74177;SDS011;62540;48.456;-4.456;2023-06-10T07:28:42;1.75;;;1.75;;
74177;SDS011;62540;48.456;-4.456;2023-06-10T07:31:08;3.00;;;2.00;;
74177;SDS011;62540;48.456;-4.456;2023-06-10T07:33:33;1.25;;;1.25;;
74177;SDS011;62540;48.456;-4.456;2023-06-10T07:35:59;2.75;;;2.00;;
74177;SDS011;62540;48.456;-4.456;2023-06-10T07:38:25;2.25;;;2.00;;
74177;SDS011;62540;48.456;-4.456;2023-06-10T07:40:51;1.00;;;1.00;;
74177;SDS011;62540;48.456;-4.456;2023-06-10T07:43:16;1.75;;;1.00;;
74177;SDS011;62540;48.456;-4.456;2023-06-10T07:45:42;2.00;;;2.00;;
74177;SDS011;62540;48.456;-4.456;2023-06-10T07:48:08;2.00;;;2.00;;
74177;SDS011;62540;48.456;-4.456;2023-06-10T07:50:34;1.25;;;1.25;;
74177;SDS011;62540;48.456;-4.456;2023-06-10T07:52:59;2.50;;;1.00;;
74177;SDS011;62540;48.456;-4.456;2023-06-10T07:55:25;1.00;;;1.00;;
74177;SDS011;62540;48.456;-4.456;2023-06-10T07:57:53;2.00;;;1.00;;
74177;SDS011;62540;48.456;-4.456;2023-06-10T08:00:19;3.00;;;2.00;;
74177;SDS011;62540;48.456;-4.456;2023-06-10T08:02:45;1.00;;;1.00;;
74177;SDS011;62540;48.456;-4.456;2023-06-10T08:05:11;2.00;;;2.00;;
74177;SDS011;62540;48.456;-4.456;2023-06-10T08:07:36;1.75;;;1.50;;
74177;SDS011;62540;48.456;-4.456;2023-06-10T08:10:02;3.00;;;2.00;;
74177;SDS011;62540;48.456;-4.456;2023-06-10T08:12:29;1.00;;;1.00;;
74177;SDS011;62540;48.456;-4.456;2023-06-10T08:14:54;1.00;;;1.00;;
74177;SDS011;62540;48.456;-4.456;2023-06-10T08:17:20;2.00;;;1.00;;
74177;SDS011;62540;48.456;-4.456;2023-06-10T08:19:45;2.00;;;1.00;;
74177;SDS011;62540;48.456;-4.456;2023-06-10T08:22:11;2.00;;;1.50;;
74177;SDS011;62540;48.456;-4.456;2023-06-10T08:24:36;2.00;;;2.00;;
74177;SDS011;62540;48.456;-4.456;2023-06-10T08:27:02;2.00;;;2.00;;
74177;SDS011;62540;48.456;-4.456;2023-06-10T08:29:28;3.00;;;1.00;;
74177;SDS011;62540;48.456;-4.456;2023-06-10T08:31:55;2.25;;;1.75;;
74177;SDS011;62540;48.456;-4.456;2023-06-10T08:34:20;1.50;;;1.50;;
74177;SDS011;62540;48.456;-4.456;2023-06-10T08:36:45;1.00;;;1.00;;
74177;SDS011;62540;48.456;-4.456;2023-06-10T08:39:11;1.00;;;1.00;;
74177;SDS011;62540;48.456;-4.456;2023-06-10T08:41:37;1.75;;;1.75;;
74177;SDS011;62540;48.456;-4.456;2023-06-10T08:44:09;2.00;;;1.00;;
74177;SDS011;62540;48.456;-4.456;2023-06-10T08:46:44;1.25;;;1.25;;
74177;SDS011;62540;48.456;-4.456;2023-06-10T08:49:10;1.25;;;1.25;;
74177;SDS011;62540;48.456;-4.456;2023-06-10T08:51:43;1.75;;;1.50;;
74177;SDS011;62540;48.456;-4.456;2023-06-10T08:54:13;1.00;;;1.00;;
74177;SDS011;62540;48.456;-4.456;2023-06-10T08:56:44;2.00;;;1.25;;
74177;SDS011;62540;48.456;-4.456;2023-06-10T08:59:14;2.25;;;2.00;;
74177;SDS011;62540;48.456;-4.456;2023-06-10T09:01:41;2.00;;;2.00;;
74177;SDS011;62540;48.456;-4.456;2023-06-10T09:04:08;1.75;;;1.00;;
74177;SDS011;62540;48.456;-4.456;2023-06-10T09:06:34;1.50;;;1.50;;
74177;SDS011;62540;48.456;-4.456;2023-06-10T09:09:01;1.50;;;1.50;;
74177;SDS011;62540;48.456;-4.456;2023-06-10T09:11:27;2.00;;;1.25;;
74177;SDS011;62540;48.456;-4.456;2023-06-10T09:13:53;1.75;;;1.75;;
74177;SDS011;62540;48.456;-4.456;2023-06-10T09:16:18;1.75;;;1.75;;
74177;SDS011;62540;48.456;-4.456;2023-06-10T09:18:44;1.00;;;1.00;;
74177;SDS011;62540;48.456;-4.456;2023-06-10T09:21:09;1.50;;;1.50;;
74177;SDS011;62540;48.456;-4.456;2023-06-10T09:23:35;1.25;;;1.25;;
74177;SDS011;62540;48.456;-4.456;2023-06-10T09:26:02;2.50;;;2.00;;
74177;SDS011;62540;48.456;-4.456;2023-06-10T09:28:30;1.50;;;1.00;;
74177;SDS011;62540;48.456;-4.456;2023-06-10T09:31:05;1.00;;;1.00;;
74177;SDS011;62540;48.456;-4.456;2023-06-10T09:33:37;1.25;;;1.25;;
74177;SDS011;62540;48.456;-4.456;2023-06-10T09:36:06;1.00;;;1.00;;
74177;SDS011;62540;48.456;-4.456;2023-06-10T09:38:33;2.00;;;1.00;;
74177;SDS011;62540;48.456;-4.456;2023-06-10T09:40:59;1.25;;;1.25;;
74177;SDS011;62540;48.456;-4.456;2023-06-10T09:43:39;1.50;;;1.50;;
74177;SDS011;62540;48.456;-4.456;2023-06-10T09:46:15;2.00;;;1.00;;
74177;SDS011;62540;48.456;-4.456;2023-06-10T09:48:44;1.50;;;1.00;;
74177;SDS011;62540;48.456;-4.456;2023-06-10T09:51:11;1.50;;;1.25;;
74177;SDS011;62540;48.456;-4.456;2023-06-10T09:53:38;2.00;;;2.00;;
74177;SDS011;62540;48.456;-4.456;2023-06-10T09:56:04;1.00;;;1.00;;
74177;SDS011;62540;48.456;-4.456;2023-06-10T09:58:36;1.75;;;1.25;;
74177;SDS011;62540;48.456;-4.456;2023-06-10T10:01:09;1.50;;;1.50;;
74177;SDS011;62540;48.456;-4.456;2023-06-10T10:03:45;2.00;;;2.00;;
74177;SDS011;62540;48.456;-4.456;2023-06-10T10:06:12;2.00;;;2.00;;
74177;SDS011;62540;48.456;-4.456;2023-06-10T10:08:39;2.00;;;1.00;;
74177;SDS011;62540;48.456;-4.456;2023-06-10T10:11:05;1.00;;;1.00;;
74177;SDS011;62540;48.456;-4.456;2023-06-10T10:13:31;1.00;;;1.00;;
74177;SDS011;62540;48.456;-4.456;2023-06-10T10:16:00;3.00;;;3.00;;
74177;SDS011;62540;48.456;-4.456;2023-06-10T10:18:37;2.00;;;2.00;;
74177;SDS011;62540;48.456;-4.456;2023-06-10T10:21:11;1.75;;;1.00;;
74177;SDS011;62540;48.456;-4.456;2023-06-10T10:23:47;1.00;;;1.00;;
74177;SDS011;62540;48.456;-4.456;2023-06-10T10:26:14;2.25;;;1.00;;
74177;SDS011;62540;48.456;-4.456;2023-06-10T10:28:48;2.75;;;2.00;;
74177;SDS011;62540;48.456;-4.456;2023-06-10T10:31:23;2.00;;;1.50;;
74177;SDS011;62540;48.456;-4.456;2023-06-10T10:33:59;2.75;;;2.25;;
74177;SDS011;62540;48.456;-4.456;2023-06-10T10:36:25;2.00;;;2.00;;
74177;SDS011;62540;48.456;-4.456;2023-06-10T10:38:52;3.00;;;2.00;;
74177;SDS011;62540;48.456;-4.456;2023-06-10T10:41:18;1.00;;;1.00;;
74177;SDS011;62540;48.456;-4.456;2023-06-10T10:43:45;1.50;;;1.00;;
74177;SDS011;62540;48.456;-4.456;2023-06-10T10:46:16;2.00;;;2.00;;
74177;SDS011;62540;48.456;-4.456;2023-06-10T10:48:42;2.00;;;2.00;;
74177;SDS011;62540;48.456;-4.456;2023-06-10T10:51:09;3.25;;;2.00;;
74177;SDS011;62540;48.456;-4.456;2023-06-10T10:53:38;2.00;;;1.50;;
74177;SDS011;62540;48.456;-4.456;2023-06-10T10:56:05;1.50;;;1.50;;
74177;SDS011;62540;48.456;-4.456;2023-06-10T10:58:34;2.00;;;2.00;;
74177;SDS011;62540;48.456;-4.456;2023-06-10T11:01:00;1.00;;;1.00;;
74177;SDS011;62540;48.456;-4.456;2023-06-10T11:03:41;2.00;;;2.00;;
74177;SDS011;62540;48.456;-4.456;2023-06-10T11:06:12;3.00;;;2.00;;
74177;SDS011;62540;48.456;-4.456;2023-06-10T11:11:17;2.00;;;2.00;;
74177;SDS011;62540;48.456;-4.456;2023-06-10T11:13:56;2.50;;;2.00;;
74177;SDS011;62540;48.456;-4.456;2023-06-10T11:16:25;3.50;;;3.00;;
74177;SDS011;62540;48.456;-4.456;2023-06-10T11:18:53;1.75;;;1.25;;
74177;SDS011;62540;48.456;-4.456;2023-06-10T11:21:19;1.00;;;1.00;;
74177;SDS011;62540;48.456;-4.456;2023-06-10T11:23:44;2.00;;;1.75;;
74177;SDS011;62540;48.456;-4.456;2023-06-10T11:31:26;2.25;;;2.00;;
74177;SDS011;62540;48.456;-4.456;2023-06-10T11:33:55;1.25;;;0.75;;
74177;SDS011;62540;48.456;-4.456;2023-06-10T11:36:23;1.00;;;1.00;;
74177;SDS011;62540;48.456;-4.456;2023-06-10T11:38:49;1.00;;;1.00;;
74177;SDS011;62540;48.456;-4.456;2023-06-10T11:41:16;1.50;;;1.50;;
74177;SDS011;62540;48.456;-4.456;2023-06-10T11:43:43;2.00;;;1.00;;
74177;SDS011;62540;48.456;-4.456;2023-06-10T11:46:09;2.50;;;1.25;;
74177;SDS011;62540;48.456;-4.456;2023-06-10T11:48:35;2.00;;;1.00;;
74177;SDS011;62540;48.456;-4.456;2023-06-10T11:51:01;2.00;;;2.00;;
74177;SDS011;62540;48.456;-4.456;2023-06-10T11:53:33;1.75;;;1.00;;
74177;SDS011;62540;48.456;-4.456;2023-06-10T11:55:59;0.75;;;0.75;;
74177;SDS011;62540;48.456;-4.456;2023-06-10T11:58:25;1.00;;;1.00;;
74177;SDS011;62540;48.456;-4.456;2023-06-10T12:00:54;1.00;;;1.00;;
74177;SDS011;62540;48.456;-4.456;2023-06-10T12:03:24;2.00;;;1.00;;
74177;SDS011;62540;48.456;-4.456;2023-06-10T12:05:57;1.00;;;1.00;;
74177;SDS011;62540;48.456;-4.456;2023-06-10T12:08:28;0.50;;;0.50;;
74177;SDS011;62540;48.456;-4.456;2023-06-10T12:10:54;1.00;;;1.00;;
74177;SDS011;62540;48.456;-4.456;2023-06-10T12:13:20;1.25;;;1.25;;
74177;SDS011;62540;48.456;-4.456;2023-06-10T12:15:46;1.00;;;1.00;;
74177;SDS011;62540;48.456;-4.456;2023-06-10T12:18:16;1.25;;;1.00;;
74177;SDS011;62540;48.456;-4.456;2023-06-10T12:20:43;2.00;;;2.00;;
74177;SDS011;62540;48.456;-4.456;2023-06-10T12:23:12;1.75;;;1.75;;
74177;SDS011;62540;48.456;-4.456;2023-06-10T12:25:38;2.00;;;2.00;;
74177;SDS011;62540;48.456;-4.456;2023-06-10T12:28:04;2.00;;;1.50;;
74177;SDS011;62540;48.456;-4.456;2023-06-10T12:30:30;1.75;;;1.75;;
74177;SDS011;62540;48.456;-4.456;2023-06-10T12:32:56;1.75;;;1.75;;
74177;SDS011;62540;48.456;-4.456;2023-06-10T12:35:26;1.00;;;1.00;;
74177;SDS011;62540;48.456;-4.456;2023-06-10T12:38:02;1.00;;;1.00;;
74177;SDS011;62540;48.456;-4.456;2023-06-10T12:40:32;1.25;;;1.00;;
74177;SDS011;62540;48.456;-4.456;2023-06-10T12:43:00;1.50;;;1.25;;
74177;SDS011;62540;48.456;-4.456;2023-06-10T12:45:27;1.25;;;1.25;;
74177;SDS011;62540;48.456;-4.456;2023-06-10T12:48:08;0.50;;;0.50;;
74177;SDS011;62540;48.456;-4.456;2023-06-10T12:50:43;1.75;;;1.00;;
74177;SDS011;62540;48.456;-4.456;2023-06-10T12:53:10;1.75;;;1.50;;
74177;SDS011;62540;48.456;-4.456;2023-06-10T12:55:36;1.00;;;1.00;;
74177;SDS011;62540;48.456;-4.456;2023-06-10T12:58:02;1.00;;;1.00;;
74177;SDS011;62540;48.456;-4.456;2023-06-10T13:00:28;0.00;;;0.00;;
74177;SDS011;62540;48.456;-4.456;2023-06-10T13:03:00;0.00;;;0.00;;
74177;SDS011;62540;48.456;-4.456;2023-06-10T13:05:27;1.00;;;1.00;;
74177;SDS011;62540;48.456;-4.456;2023-06-10T13:07:52;0.50;;;0.50;;
74177;SDS011;62540;48.456;-4.456;2023-06-10T13:10:20;0.00;;;0.00;;
74177;SDS011;62540;48.456;-4.456;2023-06-10T13:12:46;0.00;;;0.00;;
74177;SDS011;62540;48.456;-4.456;2023-06-10T13:15:11;1.00;;;0.25;;
74177;SDS011;62540;48.456;-4.456;2023-06-10T13:17:37;0.00;;;0.00;;
74177;SDS011;62540;48.456;-4.456;2023-06-10T13:20:05;0.75;;;0.75;;
74177;SDS011;62540;48.456;-4.456;2023-06-10T13:22:31;2.00;;;1.00;;
74177;SDS011;62540;48.456;-4.456;2023-06-10T13:25:01;1.00;;;1.00;;
74177;SDS011;62540;48.456;-4.456;2023-06-10T13:27:28;1.75;;;1.00;;
74177;SDS011;62540;48.456;-4.456;2023-06-10T13:29:53;3.00;;;1.00;;
74177;SDS011;62540;48.456;-4.456;2023-06-10T13:32:18;2.00;;;1.00;;
74177;SDS011;62540;48.456;-4.456;2023-06-10T13:34:44;1.00;;;1.00;;
74177;SDS011;62540;48.456;-4.456;2023-06-10T13:37:10;1.50;;;1.50;;
74177;SDS011;62540;48.456;-4.456;2023-06-10T13:39:37;2.00;;;1.00;;
74177;SDS011;62540;48.456;-4.456;2023-06-10T13:42:03;1.00;;;1.00;;
74177;SDS011;62540;48.456;-4.456;2023-06-10T13:44:29;1.00;;;1.00;;
74177;SDS011;62540;48.456;-4.456;2023-06-10T13:46:58;1.50;;;1.50;;
74177;SDS011;62540;48.456;-4.456;2023-06-10T13:49:24;2.25;;;1.25;;
74177;SDS011;62540;48.456;-4.456;2023-06-10T13:51:50;1.00;;;1.00;;
74177;SDS011;62540;48.456;-4.456;2023-06-10T13:54:15;1.50;;;1.00;;
74177;SDS011;62540;48.456;-4.456;2023-06-10T13:56:41;2.00;;;1.00;;
74177;SDS011;62540;48.456;-4.456;2023-06-10T13:59:06;3.00;;;2.00;;
74177;SDS011;62540;48.456;-4.456;2023-06-10T14:01:32;1.00;;;1.00;;
74177;SDS011;62540;48.456;-4.456;2023-06-10T14:03:57;1.00;;;1.00;;
74177;SDS011;62540;48.456;-4.456;2023-06-10T14:06:23;2.00;;;2.00;;
74177;SDS011;62540;48.456;-4.456;2023-06-10T14:08:49;0.50;;;0.25;;
74177;SDS011;62540;48.456;-4.456;2023-06-10T14:11:14;1.50;;;1.50;;
74177;SDS011;62540;48.456;-4.456;2023-06-10T14:13:40;1.50;;;1.50;;
74177;SDS011;62540;48.456;-4.456;2023-06-10T14:16:05;2.00;;;2.00;;
74177;SDS011;62540;48.456;-4.456;2023-06-10T14:18:30;1.00;;;1.00;;
74177;SDS011;62540;48.456;-4.456;2023-06-10T14:20:56;1.00;;;1.00;;
74177;SDS011;62540;48.456;-4.456;2023-06-10T14:23:21;2.00;;;1.00;;
74177;SDS011;62540;48.456;-4.456;2023-06-10T14:25:47;0.75;;;0.75;;
74177;SDS011;62540;48.456;-4.456;2023-06-10T14:28:12;2.50;;;1.50;;
74177;SDS011;62540;48.456;-4.456;2023-06-10T14:30:37;1.00;;;1.00;;
74177;SDS011;62540;48.456;-4.456;2023-06-10T14:33:03;2.00;;;2.00;;
74177;SDS011;62540;48.456;-4.456;2023-06-10T14:35:28;1.50;;;1.50;;
74177;SDS011;62540;48.456;-4.456;2023-06-10T14:37:54;2.50;;;1.75;;
74177;SDS011;62540;48.456;-4.456;2023-06-10T14:40:19;1.25;;;1.00;;